Middleton, WI (53562)

3:47 PM CST on January 26, 2015 (GMT -0600)
Middleton | Change Station
CLOSE
Current Station
Airport
Location: Middleton,
Elevation: 928 ft
Nearby Weather Stations
Active Advisory: Special Statement

Elev 928 ft 43.12 °N, 89.53 °W | Updated 12 minutes ago

Overcast
Overcast
24 °F
Feels Like 15 °F
N
9
Wind Variable Wind from South

Today
High -- | Low -- °F
--% Chance of Precip.
Yesterday
High -- | Low -- °F
Precip. -- in
7:19 AM 5:02 PM
Waxing Crescent, 47% visible
Pressure 29.81 in
Visibility 2.5 miles
Clouds Overcast 500 ft
Windchill 15 °F
Dew Point 23 °F
Humidity 94%
Rainfall 0.00 in
Snow Depth Not available.
UV 0 out of 12
Pollen .10 out of 12
Air Quality Not available.
Flu Activity Not available.
METAR KC29 262135Z AUTO 17008KT 2 1/2SM OVC005 M04/M05 A2981 RMK AO1 T10421050

More Conditions Fewer Conditions

Pressure 29.81 in
Visibility 2.5 miles
Clouds Overcast 500 ft
Windchill 15 °F
Dew Point 23 °F
Humidity 94%
Rainfall 0.00 in
Snow Depth Not available.
UV 0 out of 12
Pollen .10 out of 12
Air Quality Not available.
Flu Activity Not available.
METAR KC29 262135Z AUTO 17008KT 2 1/2SM OVC005 M04/M05 A2981 RMK AO1 T10421050

More Conditions Fewer Conditions

10-Day Weather Forecast

Almanac

Astronomy

Jan. 26, 2015 Rise Set
Actual Time
Civil Twilight
Nautical Twilight
Astronomical Twilight
Moon
Length of Visible Light
Length of Day
Tomorrow will be .
, % of the Moon is Illuminated

Today's Extremes

State Highs State Lows

Community

WunderPhotos

Upload Photos

1,790,370 photos uploaded!

WunderBlogs® & News

Nearby

Air Quality

  Air Quality AQ Index Pollutant
Not available.

Snow Depth

Station Depth Elevation

Earthquake Activity

City Distance Mag. Time & Date
Minimum magnitude displayed is 2.5.

Coastal Water Temperatures

Place Temperature

Nearby Weather Stations